sensor_id;sensor_type;location;lat;lon;timestamp;P1;durP1;ratioP1;P2;durP2;ratioP2
8474;SDS011;4274;52.012;8.448;2023-07-28T00:00:14;52.77;;;10.33;;
8474;SDS011;4274;52.012;8.448;2023-07-28T00:02:39;54.97;;;10.23;;
8474;SDS011;4274;52.012;8.448;2023-07-28T00:05:05;52.07;;;9.87;;
8474;SDS011;4274;52.012;8.448;2023-07-28T00:07:31;52.90;;;10.80;;
8474;SDS011;4274;52.012;8.448;2023-07-28T00:09:59;51.87;;;8.60;;
8474;SDS011;4274;52.012;8.448;2023-07-28T00:12:24;49.87;;;9.10;;
8474;SDS011;4274;52.012;8.448;2023-07-28T00:14:50;53.27;;;10.27;;
8474;SDS011;4274;52.012;8.448;2023-07-28T00:17:15;51.93;;;8.87;;
8474;SDS011;4274;52.012;8.448;2023-07-28T00:19:41;54.67;;;10.70;;
8474;SDS011;4274;52.012;8.448;2023-07-28T00:22:06;52.90;;;10.10;;
8474;SDS011;4274;52.012;8.448;2023-07-28T00:24:32;59.73;;;9.97;;
8474;SDS011;4274;52.012;8.448;2023-07-28T00:26:58;52.20;;;9.03;;
8474;SDS011;4274;52.012;8.448;2023-07-28T00:29:23;56.40;;;9.40;;
8474;SDS011;4274;52.012;8.448;2023-07-28T00:31:49;55.40;;;8.73;;
8474;SDS011;4274;52.012;8.448;2023-07-28T00:34:14;50.43;;;8.60;;
8474;SDS011;4274;52.012;8.448;2023-07-28T00:36:40;50.90;;;8.40;;
8474;SDS011;4274;52.012;8.448;2023-07-28T00:39:05;52.77;;;9.43;;
8474;SDS011;4274;52.012;8.448;2023-07-28T00:41:31;52.27;;;9.50;;
8474;SDS011;4274;52.012;8.448;2023-07-28T00:43:57;52.00;;;9.60;;
8474;SDS011;4274;52.012;8.448;2023-07-28T00:46:22;56.67;;;9.13;;
8474;SDS011;4274;52.012;8.448;2023-07-28T00:48:48;53.47;;;9.70;;
8474;SDS011;4274;52.012;8.448;2023-07-28T00:51:13;55.83;;;9.60;;
8474;SDS011;4274;52.012;8.448;2023-07-28T00:53:39;60.17;;;11.20;;
8474;SDS011;4274;52.012;8.448;2023-07-28T00:56:05;59.60;;;10.93;;
8474;SDS011;4274;52.012;8.448;2023-07-28T00:58:32;59.17;;;11.00;;
8474;SDS011;4274;52.012;8.448;2023-07-28T01:00:58;64.40;;;11.77;;
8474;SDS011;4274;52.012;8.448;2023-07-28T01:03:24;57.50;;;11.70;;
8474;SDS011;4274;52.012;8.448;2023-07-28T01:06:37;60.03;;;12.23;;
8474;SDS011;4274;52.012;8.448;2023-07-28T01:08:46;63.40;;;12.87;;
8474;SDS011;4274;52.012;8.448;2023-07-28T01:11:19;58.23;;;12.47;;
8474;SDS011;4274;52.012;8.448;2023-07-28T01:13:45;55.80;;;11.93;;
8474;SDS011;4274;52.012;8.448;2023-07-28T01:16:11;65.43;;;14.27;;
8474;SDS011;4274;52.012;8.448;2023-07-28T01:18:37;58.87;;;12.37;;
8474;SDS011;4274;52.012;8.448;2023-07-28T01:21:03;59.87;;;13.60;;
8474;SDS011;4274;52.012;8.448;2023-07-28T01:24:15;61.50;;;12.90;;
8474;SDS011;4274;52.012;8.448;2023-07-28T01:26:32;63.20;;;11.70;;
8474;SDS011;4274;52.012;8.448;2023-07-28T01:28:57;64.03;;;13.33;;
8474;SDS011;4274;52.012;8.448;2023-07-28T01:31:24;67.87;;;12.87;;
8474;SDS011;4274;52.012;8.448;2023-07-28T01:33:50;62.23;;;14.10;;
8474;SDS011;4274;52.012;8.448;2023-07-28T01:36:15;64.83;;;14.50;;
8474;SDS011;4274;52.012;8.448;2023-07-28T01:38:41;59.80;;;13.17;;
8474;SDS011;4274;52.012;8.448;2023-07-28T01:41:06;63.17;;;13.30;;
8474;SDS011;4274;52.012;8.448;2023-07-28T01:43:32;77.70;;;13.03;;
8474;SDS011;4274;52.012;8.448;2023-07-28T01:45:57;68.90;;;13.70;;
8474;SDS011;4274;52.012;8.448;2023-07-28T01:48:23;54.47;;;11.50;;
8474;SDS011;4274;52.012;8.448;2023-07-28T01:50:48;64.50;;;13.43;;
8474;SDS011;4274;52.012;8.448;2023-07-28T01:53:14;68.57;;;13.50;;
8474;SDS011;4274;52.012;8.448;2023-07-28T01:55:39;66.10;;;12.90;;
8474;SDS011;4274;52.012;8.448;2023-07-28T01:58:05;56.70;;;10.90;;
8474;SDS011;4274;52.012;8.448;2023-07-28T02:00:30;64.20;;;13.90;;
8474;SDS011;4274;52.012;8.448;2023-07-28T02:02:56;58.30;;;11.60;;
8474;SDS011;4274;52.012;8.448;2023-07-28T02:05:23;60.80;;;12.53;;
8474;SDS011;4274;52.012;8.448;2023-07-28T02:07:48;63.07;;;12.90;;
8474;SDS011;4274;52.012;8.448;2023-07-28T02:10:14;62.93;;;13.30;;
8474;SDS011;4274;52.012;8.448;2023-07-28T02:12:39;59.00;;;12.67;;
8474;SDS011;4274;52.012;8.448;2023-07-28T02:15:05;62.87;;;12.77;;
8474;SDS011;4274;52.012;8.448;2023-07-28T02:17:32;63.30;;;12.10;;
8474;SDS011;4274;52.012;8.448;2023-07-28T02:19:57;67.60;;;12.73;;
8474;SDS011;4274;52.012;8.448;2023-07-28T02:22:23;64.10;;;13.67;;
8474;SDS011;4274;52.012;8.448;2023-07-28T02:24:48;58.13;;;11.87;;
8474;SDS011;4274;52.012;8.448;2023-07-28T02:27:14;64.53;;;13.07;;
8474;SDS011;4274;52.012;8.448;2023-07-28T02:29:39;60.50;;;11.90;;
8474;SDS011;4274;52.012;8.448;2023-07-28T02:32:07;56.90;;;11.83;;
8474;SDS011;4274;52.012;8.448;2023-07-28T02:34:32;62.07;;;13.43;;
8474;SDS011;4274;52.012;8.448;2023-07-28T02:36:58;72.20;;;13.17;;
8474;SDS011;4274;52.012;8.448;2023-07-28T02:39:23;58.30;;;12.00;;
8474;SDS011;4274;52.012;8.448;2023-07-28T02:41:49;67.73;;;12.27;;
8474;SDS011;4274;52.012;8.448;2023-07-28T02:44:15;60.50;;;11.80;;
8474;SDS011;4274;52.012;8.448;2023-07-28T02:46:40;58.27;;;12.57;;
8474;SDS011;4274;52.012;8.448;2023-07-28T02:49:06;58.97;;;12.10;;
8474;SDS011;4274;52.012;8.448;2023-07-28T02:51:32;59.03;;;12.57;;
8474;SDS011;4274;52.012;8.448;2023-07-28T02:53:59;59.70;;;12.10;;
8474;SDS011;4274;52.012;8.448;2023-07-28T02:56:25;58.93;;;11.40;;
8474;SDS011;4274;52.012;8.448;2023-07-28T02:58:50;54.50;;;11.30;;
8474;SDS011;4274;52.012;8.448;2023-07-28T03:01:16;59.30;;;11.67;;
8474;SDS011;4274;52.012;8.448;2023-07-28T03:03:42;66.07;;;12.00;;
8474;SDS011;4274;52.012;8.448;2023-07-28T03:06:08;55.37;;;10.97;;
8474;SDS011;4274;52.012;8.448;2023-07-28T03:08:33;55.37;;;10.47;;
8474;SDS011;4274;52.012;8.448;2023-07-28T03:10:59;54.87;;;10.90;;
8474;SDS011;4274;52.012;8.448;2023-07-28T03:13:27;56.33;;;10.90;;
8474;SDS011;4274;52.012;8.448;2023-07-28T03:15:53;57.43;;;10.67;;
8474;SDS011;4274;52.012;8.448;2023-07-28T03:18:18;62.07;;;12.20;;
8474;SDS011;4274;52.012;8.448;2023-07-28T03:20:45;70.03;;;11.90;;
8474;SDS011;4274;52.012;8.448;2023-07-28T03:23:11;60.63;;;11.30;;
8474;SDS011;4274;52.012;8.448;2023-07-28T03:25:36;59.73;;;12.17;;
8474;SDS011;4274;52.012;8.448;2023-07-28T03:28:02;60.43;;;12.33;;
8474;SDS011;4274;52.012;8.448;2023-07-28T03:30:27;55.17;;;11.13;;
8474;SDS011;4274;52.012;8.448;2023-07-28T03:32:53;56.60;;;12.23;;
8474;SDS011;4274;52.012;8.448;2023-07-28T03:35:19;67.10;;;10.60;;
8474;SDS011;4274;52.012;8.448;2023-07-28T03:37:44;55.50;;;10.63;;
8474;SDS011;4274;52.012;8.448;2023-07-28T03:40:10;67.57;;;10.93;;
8474;SDS011;4274;52.012;8.448;2023-07-28T03:42:35;58.80;;;11.57;;
8474;SDS011;4274;52.012;8.448;2023-07-28T03:45:01;56.90;;;11.03;;
8474;SDS011;4274;52.012;8.448;2023-07-28T03:47:26;61.57;;;12.40;;
8474;SDS011;4274;52.012;8.448;2023-07-28T03:49:52;55.33;;;11.33;;
8474;SDS011;4274;52.012;8.448;2023-07-28T03:52:17;58.60;;;11.97;;
8474;SDS011;4274;52.012;8.448;2023-07-28T03:54:43;58.37;;;10.80;;
8474;SDS011;4274;52.012;8.448;2023-07-28T03:57:09;57.67;;;12.30;;
8474;SDS011;4274;52.012;8.448;2023-07-28T03:59:34;62.80;;;12.10;;
8474;SDS011;4274;52.012;8.448;2023-07-28T04:02:00;59.47;;;12.33;;
8474;SDS011;4274;52.012;8.448;2023-07-28T04:04:26;55.97;;;12.33;;
8474;SDS011;4274;52.012;8.448;2023-07-28T04:06:51;77.40;;;13.20;;
8474;SDS011;4274;52.012;8.448;2023-07-28T04:09:20;65.20;;;13.07;;
8474;SDS011;4274;52.012;8.448;2023-07-28T04:11:45;64.17;;;12.50;;
8474;SDS011;4274;52.012;8.448;2023-07-28T04:14:11;63.00;;;12.40;;
8474;SDS011;4274;52.012;8.448;2023-07-28T04:16:37;64.60;;;12.47;;
8474;SDS011;4274;52.012;8.448;2023-07-28T04:19:03;64.37;;;12.60;;
8474;SDS011;4274;52.012;8.448;2023-07-28T04:21:28;67.77;;;13.50;;
8474;SDS011;4274;52.012;8.448;2023-07-28T04:23:54;63.73;;;13.23;;
8474;SDS011;4274;52.012;8.448;2023-07-28T04:26:19;68.17;;;14.40;;
8474;SDS011;4274;52.012;8.448;2023-07-28T04:28:45;61.90;;;13.67;;
8474;SDS011;4274;52.012;8.448;2023-07-28T04:31:11;64.93;;;13.90;;
8474;SDS011;4274;52.012;8.448;2023-07-28T04:33:38;72.93;;;14.30;;
8474;SDS011;4274;52.012;8.448;2023-07-28T04:36:06;73.17;;;16.07;;
8474;SDS011;4274;52.012;8.448;2023-07-28T04:38:32;69.30;;;16.97;;
8474;SDS011;4274;52.012;8.448;2023-07-28T04:40:57;76.10;;;17.50;;
8474;SDS011;4274;52.012;8.448;2023-07-28T04:43:23;92.17;;;18.27;;
8474;SDS011;4274;52.012;8.448;2023-07-28T04:45:48;83.60;;;16.27;;
8474;SDS011;4274;52.012;8.448;2023-07-28T04:48:14;81.43;;;16.23;;
8474;SDS011;4274;52.012;8.448;2023-07-28T04:50:40;86.20;;;16.30;;
8474;SDS011;4274;52.012;8.448;2023-07-28T04:53:05;69.83;;;16.20;;
8474;SDS011;4274;52.012;8.448;2023-07-28T04:55:31;82.10;;;16.30;;
8474;SDS011;4274;52.012;8.448;2023-07-28T04:57:56;69.87;;;16.87;;
8474;SDS011;4274;52.012;8.448;2023-07-28T05:00:22;70.17;;;15.57;;
8474;SDS011;4274;52.012;8.448;2023-07-28T05:02:48;71.33;;;15.47;;
8474;SDS011;4274;52.012;8.448;2023-07-28T05:05:14;71.17;;;16.27;;
8474;SDS011;4274;52.012;8.448;2023-07-28T05:07:39;65.60;;;15.97;;
8474;SDS011;4274;52.012;8.448;2023-07-28T05:10:05;71.23;;;15.30;;
8474;SDS011;4274;52.012;8.448;2023-07-28T05:12:31;75.17;;;16.70;;
8474;SDS011;4274;52.012;8.448;2023-07-28T05:14:57;71.83;;;15.83;;
8474;SDS011;4274;52.012;8.448;2023-07-28T05:17:22;73.07;;;17.27;;
8474;SDS011;4274;52.012;8.448;2023-07-28T05:19:49;75.77;;;16.77;;
8474;SDS011;4274;52.012;8.448;2023-07-28T05:22:15;79.40;;;17.43;;
8474;SDS011;4274;52.012;8.448;2023-07-28T05:24:40;80.13;;;18.77;;
8474;SDS011;4274;52.012;8.448;2023-07-28T05:27:06;72.03;;;15.97;;
8474;SDS011;4274;52.012;8.448;2023-07-28T05:29:31;70.57;;;17.17;;
8474;SDS011;4274;52.012;8.448;2023-07-28T05:32:00;71.23;;;16.97;;
8474;SDS011;4274;52.012;8.448;2023-07-28T05:34:25;85.47;;;17.93;;
8474;SDS011;4274;52.012;8.448;2023-07-28T05:36:51;74.07;;;19.83;;
8474;SDS011;4274;52.012;8.448;2023-07-28T05:39:16;74.17;;;17.10;;
8474;SDS011;4274;52.012;8.448;2023-07-28T05:41:42;79.47;;;18.20;;
8474;SDS011;4274;52.012;8.448;2023-07-28T05:44:08;68.37;;;18.27;;
8474;SDS011;4274;52.012;8.448;2023-07-28T05:46:33;81.27;;;18.27;;
8474;SDS011;4274;52.012;8.448;2023-07-28T05:48:59;67.97;;;18.10;;
8474;SDS011;4274;52.012;8.448;2023-07-28T05:51:24;76.40;;;18.03;;
8474;SDS011;4274;52.012;8.448;2023-07-28T05:53:50;73.73;;;16.70;;
8474;SDS011;4274;52.012;8.448;2023-07-28T05:56:16;67.97;;;16.80;;
8474;SDS011;4274;52.012;8.448;2023-07-28T05:58:43;66.77;;;17.57;;
8474;SDS011;4274;52.012;8.448;2023-07-28T06:01:08;74.00;;;17.40;;
8474;SDS011;4274;52.012;8.448;2023-07-28T06:03:34;66.97;;;16.70;;
8474;SDS011;4274;52.012;8.448;2023-07-28T06:06:00;68.97;;;17.10;;
8474;SDS011;4274;52.012;8.448;2023-07-28T06:08:25;65.70;;;16.23;;
8474;SDS011;4274;52.012;8.448;2023-07-28T06:10:51;67.20;;;16.90;;
8474;SDS011;4274;52.012;8.448;2023-07-28T06:13:16;68.23;;;17.33;;
8474;SDS011;4274;52.012;8.448;2023-07-28T06:15:42;70.70;;;18.03;;
8474;SDS011;4274;52.012;8.448;2023-07-28T06:18:07;73.50;;;17.67;;
8474;SDS011;4274;52.012;8.448;2023-07-28T06:20:33;70.40;;;17.17;;
8474;SDS011;4274;52.012;8.448;2023-07-28T06:22:59;71.77;;;18.60;;
8474;SDS011;4274;52.012;8.448;2023-07-28T06:25:26;77.57;;;16.43;;
8474;SDS011;4274;52.012;8.448;2023-07-28T06:27:51;65.70;;;16.17;;
8474;SDS011;4274;52.012;8.448;2023-07-28T06:30:17;66.03;;;16.60;;
8474;SDS011;4274;52.012;8.448;2023-07-28T06:32:43;66.80;;;16.77;;
8474;SDS011;4274;52.012;8.448;2023-07-28T06:35:08;69.70;;;16.57;;
8474;SDS011;4274;52.012;8.448;2023-07-28T06:37:34;65.30;;;15.37;;
8474;SDS011;4274;52.012;8.448;2023-07-28T06:40:02;67.40;;;16.40;;
8474;SDS011;4274;52.012;8.448;2023-07-28T06:42:30;62.73;;;15.90;;
8474;SDS011;4274;52.012;8.448;2023-07-28T06:44:56;62.80;;;15.50;;
8474;SDS011;4274;52.012;8.448;2023-07-28T06:47:22;63.40;;;15.50;;
8474;SDS011;4274;52.012;8.448;2023-07-28T06:49:47;66.10;;;14.53;;
8474;SDS011;4274;52.012;8.448;2023-07-28T06:52:13;65.10;;;15.43;;
8474;SDS011;4274;52.012;8.448;2023-07-28T06:54:38;77.07;;;16.80;;
8474;SDS011;4274;52.012;8.448;2023-07-28T06:57:04;66.77;;;16.53;;
8474;SDS011;4274;52.012;8.448;2023-07-28T06:59:31;67.73;;;15.17;;
8474;SDS011;4274;52.012;8.448;2023-07-28T07:01:57;68.00;;;15.50;;
8474;SDS011;4274;52.012;8.448;2023-07-28T07:04:22;65.30;;;15.63;;
8474;SDS011;4274;52.012;8.448;2023-07-28T07:06:48;62.93;;;14.97;;
8474;SDS011;4274;52.012;8.448;2023-07-28T07:09:13;61.90;;;14.70;;
8474;SDS011;4274;52.012;8.448;2023-07-28T07:11:40;62.67;;;15.70;;
8474;SDS011;4274;52.012;8.448;2023-07-28T07:14:05;69.53;;;15.90;;
8474;SDS011;4274;52.012;8.448;2023-07-28T07:16:31;62.47;;;14.43;;
8474;SDS011;4274;52.012;8.448;2023-07-28T07:18:57;66.70;;;15.60;;
8474;SDS011;4274;52.012;8.448;2023-07-28T07:21:23;71.13;;;15.60;;
8474;SDS011;4274;52.012;8.448;2023-07-28T07:23:48;71.23;;;14.53;;
8474;SDS011;4274;52.012;8.448;2023-07-28T07:26:14;60.90;;;13.90;;
8474;SDS011;4274;52.012;8.448;2023-07-28T07:28:40;62.00;;;14.10;;
8474;SDS011;4274;52.012;8.448;2023-07-28T07:31:11;60.93;;;13.60;;
8474;SDS011;4274;52.012;8.448;2023-07-28T07:33:40;60.83;;;13.20;;
8474;SDS011;4274;52.012;8.448;2023-07-28T07:36:13;62.57;;;14.97;;
8474;SDS011;4274;52.012;8.448;2023-07-28T07:38:39;60.00;;;13.30;;
8474;SDS011;4274;52.012;8.448;2023-07-28T07:41:06;65.03;;;13.27;;
8474;SDS011;4274;52.012;8.448;2023-07-28T07:43:32;58.73;;;12.50;;
8474;SDS011;4274;52.012;8.448;2023-07-28T07:45:58;59.57;;;13.00;;
8474;SDS011;4274;52.012;8.448;2023-07-28T07:48:24;62.63;;;13.27;;
8474;SDS011;4274;52.012;8.448;2023-07-28T07:50:49;61.50;;;13.80;;
8474;SDS011;4274;52.012;8.448;2023-07-28T07:53:15;58.93;;;13.80;;
8474;SDS011;4274;52.012;8.448;2023-07-28T07:55:41;58.60;;;14.20;;
8474;SDS011;4274;52.012;8.448;2023-07-28T07:58:07;59.87;;;12.70;;
8474;SDS011;4274;52.012;8.448;2023-07-28T08:00:32;56.17;;;12.47;;
8474;SDS011;4274;52.012;8.448;2023-07-28T08:02:58;56.30;;;12.70;;
8474;SDS011;4274;52.012;8.448;2023-07-28T08:05:24;58.40;;;12.90;;
8474;SDS011;4274;52.012;8.448;2023-07-28T08:07:50;60.20;;;12.20;;
8474;SDS011;4274;52.012;8.448;2023-07-28T08:10:15;57.53;;;11.77;;
8474;SDS011;4274;52.012;8.448;2023-07-28T08:12:42;54.17;;;11.07;;
8474;SDS011;4274;52.012;8.448;2023-07-28T08:15:09;56.40;;;11.70;;
8474;SDS011;4274;52.012;8.448;2023-07-28T08:17:35;51.20;;;10.20;;
8474;SDS011;4274;52.012;8.448;2023-07-28T08:20:01;52.30;;;9.00;;
8474;SDS011;4274;52.012;8.448;2023-07-28T08:22:26;50.70;;;9.93;;
8474;SDS011;4274;52.012;8.448;2023-07-28T08:24:52;50.43;;;9.10;;
8474;SDS011;4274;52.012;8.448;2023-07-28T08:27:17;48.37;;;8.00;;
8474;SDS011;4274;52.012;8.448;2023-07-28T08:29:43;54.20;;;8.00;;
8474;SDS011;4274;52.012;8.448;2023-07-28T08:32:09;48.70;;;7.70;;
8474;SDS011;4274;52.012;8.448;2023-07-28T08:34:34;60.08;;;8.90;;
8474;SDS011;4274;52.012;8.448;2023-07-28T08:37:00;50.13;;;8.00;;
8474;SDS011;4274;52.012;8.448;2023-07-28T08:39:25;50.17;;;7.20;;
8474;SDS011;4274;52.012;8.448;2023-07-28T08:42:00;52.10;;;8.00;;
8474;SDS011;4274;52.012;8.448;2023-07-28T08:44:29;49.00;;;7.97;;
8474;SDS011;4274;52.012;8.448;2023-07-28T08:47:00;50.10;;;8.50;;
8474;SDS011;4274;52.012;8.448;2023-07-28T08:49:26;51.60;;;9.37;;
8474;SDS011;4274;52.012;8.448;2023-07-28T08:51:56;51.50;;;8.63;;
8474;SDS011;4274;52.012;8.448;2023-07-28T08:54:23;51.97;;;8.60;;
8474;SDS011;4274;52.012;8.448;2023-07-28T08:56:49;52.63;;;9.13;;
8474;SDS011;4274;52.012;8.448;2023-07-28T08:59:21;53.70;;;9.03;;
8474;SDS011;4274;52.012;8.448;2023-07-28T09:01:50;52.00;;;9.10;;
8474;SDS011;4274;52.012;8.448;2023-07-28T09:04:16;50.80;;;8.33;;
8474;SDS011;4274;52.012;8.448;2023-07-28T09:06:45;57.40;;;8.03;;
8474;SDS011;4274;52.012;8.448;2023-07-28T09:09:11;51.60;;;7.90;;
8474;SDS011;4274;52.012;8.448;2023-07-28T09:11:45;50.37;;;8.00;;
8474;SDS011;4274;52.012;8.448;2023-07-28T09:14:19;49.90;;;6.97;;
8474;SDS011;4274;52.012;8.448;2023-07-28T09:16:46;50.87;;;7.90;;
8474;SDS011;4274;52.012;8.448;2023-07-28T09:19:12;47.97;;;7.10;;
8474;SDS011;4274;52.012;8.448;2023-07-28T09:21:39;50.10;;;6.63;;
8474;SDS011;4274;52.012;8.448;2023-07-28T09:24:07;50.63;;;7.17;;
8474;SDS011;4274;52.012;8.448;2023-07-28T09:29:10;49.80;;;6.60;;
8474;SDS011;4274;52.012;8.448;2023-07-28T09:31:44;53.83;;;6.83;;
8474;SDS011;4274;52.012;8.448;2023-07-28T09:34:10;47.70;;;6.13;;
8474;SDS011;4274;52.012;8.448;2023-07-28T09:36:37;47.23;;;5.90;;
8474;SDS011;4274;52.012;8.448;2023-07-28T09:39:06;45.47;;;5.43;;
8474;SDS011;4274;52.012;8.448;2023-07-28T09:41:35;48.07;;;6.10;;
8474;SDS011;4274;52.012;8.448;2023-07-28T09:44:02;48.10;;;6.43;;
8474;SDS011;4274;52.012;8.448;2023-07-28T09:46:28;48.30;;;6.53;;
8474;SDS011;4274;52.012;8.448;2023-07-28T09:48:56;51.27;;;7.10;;
8474;SDS011;4274;52.012;8.448;2023-07-28T09:51:25;54.77;;;8.00;;
8474;SDS011;4274;52.012;8.448;2023-07-28T09:54:02;50.93;;;7.60;;
8474;SDS011;4274;52.012;8.448;2023-07-28T09:56:43;49.67;;;7.70;;
8474;SDS011;4274;52.012;8.448;2023-07-28T09:59:11;51.90;;;8.10;;
8474;SDS011;4274;52.012;8.448;2023-07-28T10:01:41;58.40;;;7.90;;
8474;SDS011;4274;52.012;8.448;2023-07-28T10:04:09;51.23;;;8.30;;
8474;SDS011;4274;52.012;8.448;2023-07-28T10:06:35;51.20;;;8.20;;
8474;SDS011;4274;52.012;8.448;2023-07-28T10:09:03;51.10;;;7.23;;
8474;SDS011;4274;52.012;8.448;2023-07-28T10:11:30;49.97;;;7.70;;
8474;SDS011;4274;52.012;8.448;2023-07-28T10:13:57;52.70;;;8.17;;
8474;SDS011;4274;52.012;8.448;2023-07-28T10:16:29;53.23;;;8.27;;
8474;SDS011;4274;52.012;8.448;2023-07-28T10:18:58;54.70;;;9.30;;
8474;SDS011;4274;52.012;8.448;2023-07-28T10:21:26;50.40;;;8.43;;
8474;SDS011;4274;52.012;8.448;2023-07-28T10:23:56;51.57;;;8.03;;
8474;SDS011;4274;52.012;8.448;2023-07-28T10:26:34;52.07;;;9.00;;
8474;SDS011;4274;52.012;8.448;2023-07-28T10:29:09;51.93;;;8.00;;
8474;SDS011;4274;52.012;8.448;2023-07-28T10:31:55;53.63;;;8.00;;
8474;SDS011;4274;52.012;8.448;2023-07-28T10:34:22;52.17;;;8.70;;
8474;SDS011;4274;52.012;8.448;2023-07-28T10:36:56;51.27;;;8.60;;
8474;SDS011;4274;52.012;8.448;2023-07-28T10:39:23;51.90;;;8.37;;
8474;SDS011;4274;52.012;8.448;2023-07-28T10:42:10;51.20;;;8.80;;
8474;SDS011;4274;52.012;8.448;2023-07-28T10:44:36;51.47;;;8.60;;
8474;SDS011;4274;52.012;8.448;2023-07-28T10:47:02;50.83;;;7.87;;
8474;SDS011;4274;52.012;8.448;2023-07-28T10:49:34;51.47;;;8.17;;
8474;SDS011;4274;52.012;8.448;2023-07-28T10:51:59;51.03;;;7.77;;
8474;SDS011;4274;52.012;8.448;2023-07-28T10:54:25;52.03;;;7.80;;
8474;SDS011;4274;52.012;8.448;2023-07-28T10:56:51;51.40;;;8.07;;
8474;SDS011;4274;52.012;8.448;2023-07-28T10:59:17;55.80;;;8.43;;
8474;SDS011;4274;52.012;8.448;2023-07-28T11:01:43;54.30;;;8.60;;
8474;SDS011;4274;52.012;8.448;2023-07-28T11:04:16;50.40;;;8.70;;
8474;SDS011;4274;52.012;8.448;2023-07-28T11:06:46;52.93;;;8.80;;
8474;SDS011;4274;52.012;8.448;2023-07-28T11:09:13;51.97;;;8.40;;
8474;SDS011;4274;52.012;8.448;2023-07-28T11:11:41;51.93;;;7.70;;
8474;SDS011;4274;52.012;8.448;2023-07-28T11:14:08;50.67;;;8.07;;
8474;SDS011;4274;52.012;8.448;2023-07-28T11:16:40;50.10;;;7.63;;
8474;SDS011;4274;52.012;8.448;2023-07-28T11:19:10;52.23;;;8.53;;
8474;SDS011;4274;52.012;8.448;2023-07-28T11:21:39;50.53;;;8.23;;
8474;SDS011;4274;52.012;8.448;2023-07-28T11:24:08;49.70;;;7.77;;
8474;SDS011;4274;52.012;8.448;2023-07-28T11:26:35;50.37;;;7.33;;
8474;SDS011;4274;52.012;8.448;2023-07-28T11:29:02;49.97;;;7.40;;
8474;SDS011;4274;52.012;8.448;2023-07-28T11:31:28;49.90;;;7.60;;
8474;SDS011;4274;52.012;8.448;2023-07-28T11:33:54;51.83;;;8.50;;
8474;SDS011;4274;52.012;8.448;2023-07-28T11:36:24;51.30;;;9.03;;
8474;SDS011;4274;52.012;8.448;2023-07-28T11:38:55;49.57;;;7.77;;
8474;SDS011;4274;52.012;8.448;2023-07-28T11:41:22;49.13;;;7.23;;
8474;SDS011;4274;52.012;8.448;2023-07-28T11:43:49;51.90;;;8.27;;
8474;SDS011;4274;52.012;8.448;2023-07-28T11:51:41;50.10;;;7.43;;
8474;SDS011;4274;52.012;8.448;2023-07-28T11:54:13;54.00;;;6.60;;
8474;SDS011;4274;52.012;8.448;2023-07-28T11:56:45;49.60;;;7.50;;
8474;SDS011;4274;52.012;8.448;2023-07-28T11:59:12;50.07;;;7.77;;
8474;SDS011;4274;52.012;8.448;2023-07-28T12:01:59;51.03;;;7.03;;
8474;SDS011;4274;52.012;8.448;2023-07-28T12:04:30;49.63;;;7.67;;
8474;SDS011;4274;52.012;8.448;2023-07-28T12:07:15;47.63;;;6.50;;
8474;SDS011;4274;52.012;8.448;2023-07-28T12:12:23;47.30;;;6.27;;
8474;SDS011;4274;52.012;8.448;2023-07-28T12:14:51;48.47;;;5.47;;
8474;SDS011;4274;52.012;8.448;2023-07-28T12:17:18;47.13;;;6.37;;
8474;SDS011;4274;52.012;8.448;2023-07-28T12:22:40;47.17;;;5.50;;
8474;SDS011;4274;52.012;8.448;2023-07-28T12:25:07;47.87;;;5.93;;
8474;SDS011;4274;52.012;8.448;2023-07-28T12:27:33;48.67;;;5.90;;
8474;SDS011;4274;52.012;8.448;2023-07-28T12:29:59;47.50;;;5.43;;
8474;SDS011;4274;52.012;8.448;2023-07-28T12:32:25;48.67;;;5.93;;
8474;SDS011;4274;52.012;8.448;2023-07-28T12:34:51;55.03;;;6.03;;
8474;SDS011;4274;52.012;8.448;2023-07-28T12:37:16;50.70;;;5.97;;
8474;SDS011;4274;52.012;8.448;2023-07-28T12:39:43;49.20;;;6.20;;
8474;SDS011;4274;52.012;8.448;2023-07-28T12:42:09;48.27;;;6.07;;
8474;SDS011;4274;52.012;8.448;2023-07-28T12:44:36;49.20;;;5.47;;
8474;SDS011;4274;52.012;8.448;2023-07-28T12:47:02;50.50;;;5.10;;
8474;SDS011;4274;52.012;8.448;2023-07-28T12:49:28;47.77;;;4.87;;
8474;SDS011;4274;52.012;8.448;2023-07-28T12:52:00;53.00;;;4.77;;
8474;SDS011;4274;52.012;8.448;2023-07-28T12:54:29;47.77;;;4.27;;
8474;SDS011;4274;52.012;8.448;2023-07-28T12:56:54;51.90;;;4.83;;
8474;SDS011;4274;52.012;8.448;2023-07-28T12:59:20;48.17;;;4.53;;
8474;SDS011;4274;52.012;8.448;2023-07-28T13:01:46;49.50;;;5.20;;
8474;SDS011;4274;52.012;8.448;2023-07-28T13:04:11;54.57;;;4.83;;
8474;SDS011;4274;52.012;8.448;2023-07-28T13:06:37;49.37;;;4.50;;
8474;SDS011;4274;52.012;8.448;2023-07-28T13:09:03;48.80;;;4.57;;
8474;SDS011;4274;52.012;8.448;2023-07-28T13:11:29;48.10;;;3.97;;
8474;SDS011;4274;52.012;8.448;2023-07-28T13:13:55;47.87;;;4.30;;
8474;SDS011;4274;52.012;8.448;2023-07-28T13:16:21;51.43;;;5.57;;
8474;SDS011;4274;52.012;8.448;2023-07-28T13:18:46;49.00;;;5.00;;
8474;SDS011;4274;52.012;8.448;2023-07-28T13:21:12;49.70;;;4.43;;
8474;SDS011;4274;52.012;8.448;2023-07-28T13:23:38;50.00;;;5.30;;
8474;SDS011;4274;52.012;8.448;2023-07-28T13:26:04;50.67;;;4.80;;
8474;SDS011;4274;52.012;8.448;2023-07-28T13:28:31;49.40;;;4.73;;
8474;SDS011;4274;52.012;8.448;2023-07-28T13:30:57;50.70;;;5.47;;
8474;SDS011;4274;52.012;8.448;2023-07-28T13:33:23;54.87;;;5.10;;
8474;SDS011;4274;52.012;8.448;2023-07-28T13:35:48;49.53;;;5.23;;
8474;SDS011;4274;52.012;8.448;2023-07-28T13:38:14;51.93;;;5.13;;
8474;SDS011;4274;52.012;8.448;2023-07-28T13:40:40;50.43;;;5.23;;
8474;SDS011;4274;52.012;8.448;2023-07-28T13:43:06;48.40;;;4.50;;
8474;SDS011;4274;52.012;8.448;2023-07-28T13:45:31;49.70;;;5.50;;
8474;SDS011;4274;52.012;8.448;2023-07-28T13:47:57;50.10;;;5.47;;
8474;SDS011;4274;52.012;8.448;2023-07-28T13:50:22;54.27;;;5.57;;
8474;SDS011;4274;52.012;8.448;2023-07-28T13:52:48;49.20;;;5.07;;
8474;SDS011;4274;52.012;8.448;2023-07-28T13:55:14;48.83;;;4.93;;
8474;SDS011;4274;52.012;8.448;2023-07-28T13:57:39;50.13;;;4.90;;
8474;SDS011;4274;52.012;8.448;2023-07-28T14:00:06;48.30;;;4.90;;
8474;SDS011;4274;52.012;8.448;2023-07-28T14:02:35;49.20;;;4.77;;
8474;SDS011;4274;52.012;8.448;2023-07-28T14:05:02;49.27;;;4.60;;
8474;SDS011;4274;52.012;8.448;2023-07-28T14:07:27;49.13;;;4.93;;
8474;SDS011;4274;52.012;8.448;2023-07-28T14:09:53;51.37;;;5.00;;
8474;SDS011;4274;52.012;8.448;2023-07-28T14:12:18;53.40;;;5.10;;
8474;SDS011;4274;52.012;8.448;2023-07-28T14:14:44;48.20;;;4.77;;
8474;SDS011;4274;52.012;8.448;2023-07-28T14:17:10;49.20;;;5.63;;
8474;SDS011;4274;52.012;8.448;2023-07-28T14:19:38;54.67;;;5.93;;
8474;SDS011;4274;52.012;8.448;2023-07-28T14:22:05;49.57;;;5.50;;
8474;SDS011;4274;52.012;8.448;2023-07-28T14:24:30;52.57;;;5.63;;
8474;SDS011;4274;52.012;8.448;2023-07-28T14:26:56;53.23;;;6.47;;
8474;SDS011;4274;52.012;8.448;2023-07-28T14:29:22;48.93;;;5.40;;
8474;SDS011;4274;52.012;8.448;2023-07-28T14:31:47;56.20;;;5.50;;
8474;SDS011;4274;52.012;8.448;2023-07-28T14:34:13;49.20;;;4.40;;
8474;SDS011;4274;52.012;8.448;2023-07-28T14:36:39;62.57;;;4.50;;
8474;SDS011;4274;52.012;8.448;2023-07-28T14:39:05;46.77;;;4.30;;
8474;SDS011;4274;52.012;8.448;2023-07-28T14:41:31;52.70;;;4.40;;
8474;SDS011;4274;52.012;8.448;2023-07-28T14:43:56;53.53;;;4.23;;
8474;SDS011;4274;52.012;8.448;2023-07-28T14:46:22;49.90;;;4.77;;
8474;SDS011;4274;52.012;8.448;2023-07-28T14:48:49;49.27;;;4.80;;
8474;SDS011;4274;52.012;8.448;2023-07-28T14:51:15;48.97;;;4.30;;
8474;SDS011;4274;52.012;8.448;2023-07-28T14:53:41;48.37;;;5.07;;
8474;SDS011;4274;52.012;8.448;2023-07-28T14:56:07;48.57;;;4.80;;
8474;SDS011;4274;52.012;8.448;2023-07-28T14:58:32;51.73;;;4.80;;
8474;SDS011;4274;52.012;8.448;2023-07-28T15:00:58;50.30;;;5.17;;
8474;SDS011;4274;52.012;8.448;2023-07-28T15:03:26;48.30;;;4.90;;
8474;SDS011;4274;52.012;8.448;2023-07-28T15:05:53;47.77;;;5.07;;